createdAt,value
2022-10-18T00:00:02.086Z,48.30
2022-10-18T00:02:32.307Z,48.30
2022-10-18T00:05:00.030Z,48.30
2022-10-18T00:07:27.735Z,48.30
2022-10-18T00:09:56.824Z,48.30
2022-10-18T00:12:24.466Z,48.30
2022-10-18T00:14:52.265Z,48.30
2022-10-18T00:17:19.956Z,48.40
2022-10-18T00:19:48.161Z,48.40
2022-10-18T00:22:15.791Z,48.40
2022-10-18T00:24:43.429Z,48.50
2022-10-18T00:27:12.472Z,48.60
2022-10-18T00:29:40.177Z,48.50
2022-10-18T00:32:07.829Z,48.50
2022-10-18T00:34:35.487Z,48.50
2022-10-18T00:37:03.108Z,48.60
2022-10-18T00:39:30.810Z,48.50
2022-10-18T00:41:58.471Z,48.50
2022-10-18T00:45:03.975Z,48.50
2022-10-18T00:47:31.669Z,48.50
2022-10-18T00:49:59.382Z,48.50
2022-10-18T00:52:29.209Z,48.50
2022-10-18T00:54:57.619Z,48.50
2022-10-18T00:57:25.476Z,48.50
2022-10-18T00:59:53.270Z,48.60
2022-10-18T01:02:22.235Z,48.50
2022-10-18T01:04:50.019Z,48.50
2022-10-18T01:07:32.825Z,48.50
2022-10-18T01:10:04.302Z,48.50
2022-10-18T01:12:37.860Z,48.60
2022-10-18T01:15:09.383Z,48.50
2022-10-18T01:17:48.646Z,49.20
2022-10-18T01:20:30.865Z,48.50
2022-10-18T01:23:01.280Z,48.50
2022-10-18T01:25:36.709Z,48.50
2022-10-18T01:28:10.790Z,48.50
2022-10-18T01:30:47.380Z,48.50
2022-10-18T01:33:20.022Z,48.60
2022-10-18T01:35:49.947Z,48.50
2022-10-18T01:38:18.068Z,48.60
2022-10-18T01:40:46.795Z,48.50
2022-10-18T01:43:14.431Z,48.50
2022-10-18T01:45:43.632Z,48.60
2022-10-18T01:48:11.889Z,48.60
2022-10-18T01:50:39.604Z,48.60
2022-10-18T01:53:07.258Z,48.60
2022-10-18T01:55:39.041Z,48.60
2022-10-18T01:58:10.183Z,48.60
2022-10-18T02:00:39.039Z,48.60
2022-10-18T02:03:10.182Z,48.60
2022-10-18T02:05:40.143Z,48.60
2022-10-18T02:08:12.647Z,48.70
2022-10-18T02:10:48.176Z,48.60
2022-10-18T02:13:16.623Z,48.60
2022-10-18T02:15:45.622Z,48.60
2022-10-18T02:18:16.231Z,48.60
2022-10-18T02:20:43.892Z,48.70
2022-10-18T02:23:11.511Z,48.70
2022-10-18T02:25:39.160Z,48.70
2022-10-18T02:28:06.883Z,48.70
2022-10-18T02:30:37.120Z,48.70
2022-10-18T02:33:06.222Z,48.80
2022-10-18T02:35:36.456Z,48.70
2022-10-18T02:38:04.114Z,48.80
2022-10-18T02:40:31.848Z,48.80
2022-10-18T02:42:59.668Z,48.80
2022-10-18T02:45:27.515Z,48.80
2022-10-18T02:47:55.169Z,48.80
2022-10-18T02:50:22.802Z,48.80
2022-10-18T02:52:51.767Z,48.80
2022-10-18T02:55:19.670Z,48.80
2022-10-18T02:57:47.359Z,48.80
2022-10-18T03:00:15.926Z,48.80
2022-10-18T03:02:43.567Z,48.80
2022-10-18T03:05:11.192Z,48.80
2022-10-18T03:07:38.822Z,48.80
2022-10-18T03:10:09.016Z,48.80
2022-10-18T03:12:36.665Z,48.90
2022-10-18T03:15:04.807Z,49.00
2022-10-18T03:17:32.702Z,48.80
2022-10-18T03:20:00.590Z,48.80
2022-10-18T03:24:56.880Z,48.80
2022-10-18T03:27:25.851Z,48.80
2022-10-18T03:29:53.502Z,49.40
2022-10-18T03:32:21.152Z,48.80
2022-10-18T03:34:48.776Z,48.80
2022-10-18T03:37:16.405Z,48.80
2022-10-18T03:39:44.021Z,48.80
2022-10-18T03:42:11.663Z,48.80
2022-10-18T03:44:40.614Z,48.80
2022-10-18T03:47:08.246Z,48.80
2022-10-18T03:49:35.901Z,48.80
2022-10-18T03:52:03.540Z,48.70
2022-10-18T03:54:31.190Z,48.70
2022-10-18T03:56:58.836Z,48.80
2022-10-18T03:59:26.495Z,48.80
2022-10-18T04:01:55.549Z,48.80
2022-10-18T04:04:23.479Z,48.80
2022-10-18T04:06:51.107Z,48.80
2022-10-18T04:09:18.931Z,49.30
2022-10-18T04:11:46.571Z,48.80
2022-10-18T04:14:14.208Z,48.80
2022-10-18T04:16:41.857Z,48.70
2022-10-18T04:19:10.811Z,48.70
2022-10-18T04:21:38.422Z,48.80
2022-10-18T04:24:06.795Z,48.70
2022-10-18T04:26:34.449Z,48.80
2022-10-18T04:29:02.139Z,48.70
2022-10-18T04:31:29.872Z,48.70
2022-10-18T04:33:57.525Z,48.80
2022-10-18T04:36:26.488Z,48.80
2022-10-18T04:38:54.150Z,48.70
2022-10-18T04:41:21.767Z,48.70
2022-10-18T04:43:49.458Z,48.70
2022-10-18T04:46:17.103Z,48.70
2022-10-18T04:48:44.740Z,48.70
2022-10-18T04:51:12.404Z,48.70
2022-10-18T04:53:41.379Z,48.70
2022-10-18T04:56:09.332Z,48.70
2022-10-18T04:58:36.992Z,48.70
2022-10-18T05:01:06.156Z,48.70
2022-10-18T05:03:33.857Z,48.70
2022-10-18T05:06:03.030Z,48.70
2022-10-18T05:08:31.165Z,48.70
2022-10-18T05:11:00.194Z,48.70
2022-10-18T05:13:27.878Z,48.70
2022-10-18T05:15:55.795Z,48.70
2022-10-18T05:18:23.490Z,48.70
2022-10-18T05:20:51.153Z,48.70
2022-10-18T05:23:18.784Z,48.70
2022-10-18T05:25:46.427Z,48.70
2022-10-18T05:28:37.997Z,48.70
2022-10-18T05:31:03.451Z,48.70
2022-10-18T05:33:31.163Z,48.70
2022-10-18T05:35:58.903Z,48.70
2022-10-18T05:38:26.724Z,48.70
2022-10-18T05:40:54.384Z,48.80
2022-10-18T05:43:23.402Z,48.70
2022-10-18T05:45:51.250Z,48.80
2022-10-18T05:48:18.947Z,48.80
2022-10-18T05:50:46.735Z,48.80
2022-10-18T05:53:35.083Z,48.80
2022-10-18T05:56:02.234Z,48.80
2022-10-18T05:58:31.188Z,48.80
2022-10-18T06:01:00.649Z,48.80
2022-10-18T06:03:30.208Z,48.80
2022-10-18T06:06:01.035Z,48.80
2022-10-18T06:08:28.698Z,48.90
2022-10-18T06:10:56.386Z,48.80
2022-10-18T06:13:24.102Z,48.80
2022-10-18T06:15:56.816Z,48.90
2022-10-18T06:18:24.608Z,48.80
2022-10-18T06:20:57.500Z,48.80
2022-10-18T06:23:25.178Z,48.90
2022-10-18T06:25:52.838Z,48.90
2022-10-18T06:28:20.532Z,48.90
2022-10-18T06:30:48.192Z,48.80
2022-10-18T06:33:17.149Z,48.80
2022-10-18T06:35:44.834Z,48.90
2022-10-18T06:38:12.484Z,48.80
2022-10-18T06:40:40.174Z,48.80
2022-10-18T06:43:19.912Z,48.80
2022-10-18T06:45:48.486Z,48.90
2022-10-18T06:48:17.480Z,48.90
2022-10-18T06:50:51.984Z,48.90
2022-10-18T06:53:19.630Z,48.90
2022-10-18T06:55:47.651Z,48.90
2022-10-18T06:58:15.304Z,48.90
2022-10-18T07:00:42.967Z,48.90
2022-10-18T07:03:10.639Z,48.90
2022-10-18T07:05:39.646Z,48.90
2022-10-18T07:08:07.278Z,48.90
2022-10-18T07:10:34.955Z,48.90
2022-10-18T07:13:27.455Z,48.90
2022-10-18T07:15:50.355Z,49.00
2022-10-18T07:18:18.014Z,49.00
2022-10-18T07:20:47.177Z,49.00
2022-10-18T07:23:14.967Z,48.90
2022-10-18T07:25:42.733Z,48.90
2022-10-18T07:28:10.683Z,48.90
2022-10-18T07:30:38.368Z,49.00
2022-10-18T07:33:06.167Z,49.00
2022-10-18T07:35:33.836Z,49.00
2022-10-18T07:38:03.000Z,49.00
2022-10-18T07:40:30.834Z,49.00
2022-10-18T07:43:01.593Z,49.00
2022-10-18T07:45:31.962Z,49.00
2022-10-18T07:47:59.789Z,49.00
2022-10-18T07:50:27.653Z,49.60
2022-10-18T07:52:55.413Z,49.00
2022-10-18T07:55:24.432Z,48.90
2022-10-18T07:57:52.241Z,49.00
2022-10-18T08:00:20.162Z,49.00
2022-10-18T08:02:48.016Z,49.00
2022-10-18T08:05:16.410Z,48.90
2022-10-18T08:07:44.480Z,48.90
2022-10-18T08:10:12.434Z,48.90
2022-10-18T08:12:41.749Z,48.90
2022-10-18T08:15:10.355Z,49.00
2022-10-18T08:17:38.216Z,49.00
2022-10-18T08:20:12.181Z,48.90
2022-10-18T08:22:59.099Z,48.90
2022-10-18T08:25:27.803Z,48.90
2022-10-18T08:27:57.936Z,48.80
2022-10-18T08:30:27.458Z,48.80
2022-10-18T08:32:55.456Z,48.80
2022-10-18T08:35:23.186Z,48.80
2022-10-18T08:37:51.211Z,48.80
2022-10-18T08:40:19.049Z,48.80
2022-10-18T08:43:00.157Z,48.80
2022-10-18T08:45:42.038Z,49.40
2022-10-18T08:48:17.800Z,48.80
2022-10-18T08:50:45.507Z,48.80
2022-10-18T08:53:16.097Z,48.80
2022-10-18T08:55:46.022Z,48.70
2022-10-18T08:58:17.603Z,48.70
2022-10-18T09:00:47.180Z,48.70
2022-10-18T09:03:22.407Z,48.70
2022-10-18T09:05:51.164Z,48.80
2022-10-18T09:08:32.559Z,48.70
2022-10-18T09:11:06.347Z,48.60
2022-10-18T09:13:57.904Z,48.60
2022-10-18T09:16:29.315Z,48.60
2022-10-18T09:18:58.908Z,48.60
2022-10-18T09:21:30.960Z,48.60
2022-10-18T09:24:01.852Z,48.60
2022-10-18T09:26:29.525Z,48.50
2022-10-18T09:29:04.214Z,48.50
2022-10-18T09:31:37.631Z,48.50
2022-10-18T09:34:06.745Z,48.40
2022-10-18T09:36:36.922Z,48.30
2022-10-18T09:39:05.265Z,48.30
2022-10-18T09:41:35.284Z,48.20
2022-10-18T09:44:06.716Z,48.10
2022-10-18T09:46:37.200Z,48.00
2022-10-18T09:49:05.856Z,48.00
2022-10-18T09:51:35.831Z,48.00
2022-10-18T09:54:15.831Z,47.90
2022-10-18T09:56:46.013Z,47.80
2022-10-18T09:59:29.445Z,47.80
2022-10-18T10:01:57.238Z,47.70
2022-10-18T10:04:24.870Z,47.70
2022-10-18T10:06:53.059Z,47.60
2022-10-18T10:09:25.664Z,47.60
2022-10-18T10:11:55.303Z,47.60
2022-10-18T10:14:26.352Z,47.50
2022-10-18T10:16:55.296Z,47.40
2022-10-18T10:19:29.968Z,47.50
2022-10-18T10:22:00.009Z,47.30
2022-10-18T10:24:34.284Z,47.30
2022-10-18T10:27:03.832Z,47.30
2022-10-18T10:29:53.572Z,47.40
2022-10-18T10:32:22.046Z,47.30
2022-10-18T10:34:49.944Z,47.40
2022-10-18T10:37:32.378Z,47.30
2022-10-18T10:40:19.355Z,47.20
2022-10-18T10:43:24.989Z,47.20
2022-10-18T10:46:00.444Z,47.20
2022-10-18T10:48:32.993Z,47.60
2022-10-18T10:51:05.556Z,47.20
2022-10-18T10:53:38.491Z,47.30
2022-10-18T10:56:06.760Z,47.20
2022-10-18T10:58:36.850Z,47.20
2022-10-18T11:01:20.784Z,47.20
2022-10-18T11:03:49.231Z,47.00
2022-10-18T11:06:38.508Z,47.10
2022-10-18T11:09:07.240Z,46.90
2022-10-18T11:11:35.968Z,47.10
2022-10-18T11:14:25.841Z,47.00
2022-10-18T11:16:57.957Z,47.00
2022-10-18T11:19:33.040Z,47.00
2022-10-18T11:22:01.187Z,46.90
2022-10-18T11:24:28.828Z,47.10
2022-10-18T11:26:57.891Z,47.00
2022-10-18T11:29:41.412Z,46.90
2022-10-18T11:32:14.701Z,46.70
2022-10-18T11:35:06.641Z,46.70
2022-10-18T11:37:44.912Z,46.80
2022-10-18T11:40:23.448Z,46.80
2022-10-18T11:42:53.660Z,46.80
2022-10-18T11:48:02.541Z,46.70
2022-10-18T11:50:32.055Z,46.70
2022-10-18T11:53:05.605Z,46.70
2022-10-18T11:55:39.360Z,46.60
2022-10-18T11:58:13.810Z,46.60
2022-10-18T12:00:48.889Z,46.60
2022-10-18T12:03:35.440Z,46.50
2022-10-18T12:06:04.734Z,46.30
2022-10-18T12:08:34.500Z,46.70
2022-10-18T12:11:08.700Z,46.60
2022-10-18T12:13:39.817Z,46.50
2022-10-18T12:16:08.234Z,46.50
2022-10-18T12:18:37.340Z,46.60
2022-10-18T12:21:05.180Z,46.50
2022-10-18T12:23:37.800Z,45.90
2022-10-18T12:26:06.553Z,45.60
2022-10-18T12:28:38.448Z,45.00
2022-10-18T12:31:07.883Z,45.00
2022-10-18T12:33:38.818Z,44.90
2022-10-18T12:36:12.114Z,45.10
2022-10-18T12:38:40.789Z,45.30
2022-10-18T12:41:11.311Z,45.00
2022-10-18T12:43:38.968Z,43.70
2022-10-18T12:46:12.280Z,43.10
2022-10-18T12:48:43.643Z,42.10
2022-10-18T12:51:15.025Z,40.70
2022-10-18T12:53:44.856Z,40.00
2022-10-18T12:56:36.740Z,39.40
2022-10-18T12:59:46.341Z,38.60
2022-10-18T13:02:25.374Z,40.00
2022-10-18T13:04:56.752Z,40.20
2022-10-18T13:07:40.720Z,41.00
2022-10-18T13:10:41.864Z,41.50
2022-10-18T13:13:39.320Z,42.00
2022-10-18T13:16:22.439Z,42.70
2022-10-18T13:18:54.031Z,43.20
2022-10-18T13:21:27.876Z,43.50
2022-10-18T13:24:07.923Z,43.80
2022-10-18T13:26:40.265Z,44.10
2022-10-18T13:29:18.429Z,44.30
2022-10-18T13:31:46.939Z,44.60
2022-10-18T13:34:18.986Z,44.90
2022-10-18T13:36:55.490Z,45.10
2022-10-18T13:39:23.140Z,45.30
2022-10-18T13:42:31.526Z,45.50
2022-10-18T13:45:36.600Z,44.00
2022-10-18T13:48:41.559Z,43.60
2022-10-18T13:51:17.318Z,43.20
2022-10-18T13:53:49.734Z,43.60
2022-10-18T13:56:37.604Z,44.10
2022-10-18T13:59:21.865Z,44.40
2022-10-18T14:02:04.478Z,44.90
2022-10-18T14:04:38.900Z,45.50
2022-10-18T14:07:06.801Z,45.60
2022-10-18T14:09:44.591Z,45.60
2022-10-18T14:12:18.998Z,45.80
2022-10-18T14:14:48.698Z,45.90
2022-10-18T14:17:20.078Z,46.10
2022-10-18T14:19:48.908Z,46.20
2022-10-18T14:22:18.957Z,46.30
2022-10-18T14:24:49.793Z,46.30
2022-10-18T14:27:18.854Z,46.50
2022-10-18T14:29:46.687Z,46.60
2022-10-18T14:32:23.849Z,46.60
2022-10-18T14:34:51.534Z,46.80
2022-10-18T14:37:22.741Z,46.80
2022-10-18T14:39:51.700Z,46.90
2022-10-18T14:42:21.008Z,47.10
2022-10-18T14:44:53.002Z,47.10
2022-10-18T14:47:24.384Z,47.10
2022-10-18T14:49:54.210Z,47.00
2022-10-18T14:52:26.228Z,47.00
2022-10-18T14:54:56.548Z,47.10
2022-10-18T14:57:25.374Z,47.10
2022-10-18T14:59:56.860Z,47.10
2022-10-18T15:02:25.215Z,47.10
2022-10-18T15:04:58.240Z,47.20
2022-10-18T15:07:28.659Z,47.30
2022-10-18T15:09:57.861Z,47.30
2022-10-18T15:12:25.568Z,47.30
2022-10-18T15:14:53.208Z,47.30
2022-10-18T15:17:22.329Z,47.30
2022-10-18T15:20:00.610Z,47.50
2022-10-18T15:22:32.916Z,47.40
2022-10-18T15:25:10.496Z,47.60
2022-10-18T15:27:39.217Z,47.60
2022-10-18T15:30:08.548Z,47.50
2022-10-18T15:32:37.692Z,47.50
2022-10-18T15:35:09.709Z,47.50
2022-10-18T15:37:39.209Z,47.50
2022-10-18T15:40:41.817Z,47.50
2022-10-18T15:43:36.107Z,47.60
2022-10-18T15:46:06.554Z,47.60
2022-10-18T15:48:36.511Z,47.60
2022-10-18T15:51:05.221Z,47.70
2022-10-18T15:53:46.356Z,47.60
2022-10-18T15:56:28.066Z,47.60
2022-10-18T15:58:56.844Z,47.70
2022-10-18T16:01:25.440Z,47.70
2022-10-18T16:06:25.700Z,47.70
2022-10-18T16:08:54.179Z,47.70
2022-10-18T16:11:24.076Z,47.70
2022-10-18T16:13:54.021Z,47.80
2022-10-18T16:16:25.118Z,47.90
2022-10-18T16:18:52.966Z,48.50
2022-10-18T16:21:21.783Z,47.90
2022-10-18T16:23:49.630Z,47.90
2022-10-18T16:26:17.716Z,47.90
2022-10-18T16:28:46.777Z,47.90
2022-10-18T16:33:49.456Z,48.00
2022-10-18T16:36:17.318Z,48.00
2022-10-18T16:38:45.292Z,48.00
2022-10-18T16:41:13.267Z,48.00
2022-10-18T16:43:41.054Z,48.00
2022-10-18T16:46:11.826Z,48.00
2022-10-18T16:48:39.475Z,48.00
2022-10-18T16:51:07.418Z,48.10
2022-10-18T16:53:35.155Z,48.10
2022-10-18T16:56:03.144Z,48.10
2022-10-18T16:58:31.322Z,48.10
2022-10-18T17:00:59.104Z,48.20
2022-10-18T17:03:28.124Z,48.10
2022-10-18T17:05:56.213Z,48.20
2022-10-18T17:08:25.642Z,48.30
2022-10-18T17:10:54.086Z,48.30
2022-10-18T17:13:21.886Z,48.30
2022-10-18T17:15:49.708Z,48.30
2022-10-18T17:18:21.573Z,48.30
2022-10-18T17:20:50.614Z,48.30
2022-10-18T17:23:18.263Z,48.30
2022-10-18T17:25:58.936Z,48.30
2022-10-18T17:28:34.657Z,48.30
2022-10-18T17:31:02.303Z,48.30
2022-10-18T17:33:29.956Z,48.30
2022-10-18T17:35:59.059Z,48.30
2022-10-18T17:38:26.688Z,48.30
2022-10-18T17:40:54.447Z,48.30
2022-10-18T17:43:22.092Z,48.30
2022-10-18T17:45:50.857Z,48.40
2022-10-18T17:48:18.699Z,48.30
2022-10-18T17:50:46.368Z,48.40
2022-10-18T17:53:16.542Z,48.40
2022-10-18T17:55:44.198Z,48.30
2022-10-18T17:58:11.868Z,48.40
2022-10-18T18:00:39.515Z,48.40
2022-10-18T18:03:07.250Z,48.40
2022-10-18T18:05:35.398Z,48.50
2022-10-18T18:08:04.185Z,48.40
2022-10-18T18:10:34.379Z,48.40
2022-10-18T18:13:02.051Z,48.40
2022-10-18T18:15:29.702Z,48.40
2022-10-18T18:17:58.056Z,48.40
2022-10-18T18:20:26.163Z,48.40
2022-10-18T18:22:54.015Z,48.40
2022-10-18T18:25:21.669Z,48.40
2022-10-18T18:27:50.690Z,48.50
2022-10-18T18:30:18.406Z,48.50
2022-10-18T18:32:46.075Z,48.70
2022-10-18T18:35:13.736Z,48.70
2022-10-18T18:37:41.470Z,48.70
2022-10-18T18:40:09.918Z,48.80
2022-10-18T18:42:37.662Z,48.80
2022-10-18T18:45:07.694Z,48.90
2022-10-18T18:47:36.001Z,48.80
2022-10-18T18:50:03.648Z,48.80
2022-10-18T18:52:31.586Z,48.80
2022-10-18T18:54:59.383Z,48.90
2022-10-18T18:57:27.047Z,48.90
2022-10-18T18:59:54.739Z,48.80
2022-10-18T19:02:23.733Z,48.90
2022-10-18T19:04:51.592Z,48.90
2022-10-18T19:07:19.245Z,49.00
2022-10-18T19:09:48.394Z,48.90
2022-10-18T19:12:20.413Z,48.90
2022-10-18T19:14:49.117Z,48.90
2022-10-18T19:17:16.978Z,48.90
2022-10-18T19:19:46.187Z,48.90
2022-10-18T19:22:14.053Z,48.90
2022-10-18T19:24:41.760Z,48.90
2022-10-18T19:27:12.286Z,48.90
2022-10-18T19:29:40.273Z,48.90
2022-10-18T19:32:08.816Z,48.90
2022-10-18T19:34:36.514Z,48.90
2022-10-18T19:37:05.576Z,48.90
2022-10-18T19:39:33.998Z,48.90
2022-10-18T19:42:03.137Z,48.90
2022-10-18T19:44:31.862Z,48.80
2022-10-18T19:46:59.589Z,48.90
2022-10-18T19:49:28.524Z,48.80
2022-10-18T19:51:56.412Z,48.90
2022-10-18T19:54:25.484Z,48.90
2022-10-18T19:56:53.180Z,48.80
2022-10-18T19:59:21.188Z,48.90
2022-10-18T20:01:48.955Z,48.90
2022-10-18T20:04:16.802Z,48.90
2022-10-18T20:06:44.519Z,48.90
2022-10-18T20:09:16.066Z,49.50
2022-10-18T20:11:48.519Z,48.90
2022-10-18T20:14:16.192Z,48.80
2022-10-18T20:16:43.878Z,48.80
2022-10-18T20:19:11.633Z,49.00
2022-10-18T20:21:39.870Z,48.80
2022-10-18T20:24:07.710Z,48.70
2022-10-18T20:26:35.720Z,48.70
2022-10-18T20:29:05.005Z,48.70
2022-10-18T20:31:33.729Z,48.70
2022-10-18T20:34:02.114Z,48.60
2022-10-18T20:36:30.874Z,48.70
2022-10-18T20:38:58.576Z,48.70
2022-10-18T20:41:27.093Z,48.70
2022-10-18T20:43:55.204Z,48.70
2022-10-18T20:46:24.339Z,48.70
2022-10-18T20:48:52.276Z,48.80
2022-10-18T20:51:20.034Z,48.80
2022-10-18T20:53:47.743Z,48.80
2022-10-18T20:56:16.173Z,48.70
2022-10-18T20:58:44.495Z,48.80
2022-10-18T21:01:13.445Z,48.80
2022-10-18T21:03:43.019Z,48.70
2022-10-18T21:06:11.532Z,48.70
2022-10-18T21:08:39.213Z,48.70
2022-10-18T21:11:07.187Z,48.80
2022-10-18T21:13:34.835Z,48.70
2022-10-18T21:16:02.542Z,48.80
2022-10-18T21:18:31.852Z,48.80
2022-10-18T21:23:40.973Z,48.80
2022-10-18T21:26:08.727Z,48.70
2022-10-18T21:28:36.419Z,48.70
2022-10-18T21:31:12.579Z,48.70
2022-10-18T21:33:40.386Z,48.70
2022-10-18T21:36:09.550Z,48.70
2022-10-18T21:38:37.451Z,48.70
2022-10-18T21:41:08.846Z,48.70
2022-10-18T21:43:36.537Z,48.60
2022-10-18T21:46:04.518Z,48.70
2022-10-18T21:48:32.226Z,48.70
2022-10-18T21:51:03.367Z,48.70
2022-10-18T21:53:32.357Z,48.70
2022-10-18T21:56:05.609Z,48.70
2022-10-18T21:58:33.325Z,48.60
2022-10-18T22:01:01.008Z,48.70
2022-10-18T22:03:28.704Z,48.70
2022-10-18T22:06:01.139Z,48.70
2022-10-18T22:08:28.900Z,48.70
2022-10-18T22:10:58.072Z,48.70
2022-10-18T22:13:25.839Z,48.70
2022-10-18T22:15:53.524Z,48.60
2022-10-18T22:18:21.303Z,48.70
2022-10-18T22:20:54.819Z,48.60
2022-10-18T22:23:22.543Z,48.60
2022-10-18T22:25:50.358Z,48.70
2022-10-18T22:28:19.407Z,48.70
2022-10-18T22:30:47.054Z,48.60
2022-10-18T22:33:14.717Z,48.70
2022-10-18T22:35:42.394Z,48.70
2022-10-18T22:38:10.048Z,48.60
2022-10-18T22:40:37.667Z,48.70
2022-10-18T22:43:05.302Z,48.70
2022-10-18T22:45:34.242Z,48.70
2022-10-18T22:48:01.887Z,48.70
2022-10-18T22:50:29.575Z,48.70
2022-10-18T22:52:57.216Z,49.30
2022-10-18T22:55:24.851Z,48.60
2022-10-18T22:57:52.487Z,48.60
2022-10-18T23:00:20.150Z,48.60
2022-10-18T23:02:50.956Z,48.70
2022-10-18T23:05:18.641Z,48.70
2022-10-18T23:07:48.679Z,48.70
2022-10-18T23:10:16.535Z,48.60
2022-10-18T23:12:44.199Z,48.60
2022-10-18T23:15:12.136Z,48.60
2022-10-18T23:17:39.810Z,48.70
2022-10-18T23:20:09.774Z,48.60
2022-10-18T23:22:37.445Z,48.60
2022-10-18T23:25:05.842Z,48.70
2022-10-18T23:27:33.545Z,48.70
2022-10-18T23:30:01.235Z,48.80
2022-10-18T23:32:29.105Z,48.80
2022-10-18T23:34:59.205Z,48.70
2022-10-18T23:37:28.189Z,48.80
2022-10-18T23:39:55.826Z,48.90
2022-10-18T23:42:23.460Z,48.90
2022-10-18T23:44:51.102Z,49.00
2022-10-18T23:47:18.741Z,49.00
2022-10-18T23:49:46.395Z,49.00
2022-10-18T23:52:14.019Z,49.00
2022-10-18T23:57:15.588Z,49.00
2022-10-18T23:59:43.329Z,49.00
